Time;durP1;ratioP1;P1;durP2;ratioP2;P2;SDS_P1;SDS_P2;PMS_P1;PMS_P2;Temp;Humidity;BMP_temperature;BMP_pressure;BME280_temperature;BME280_humidity;BME280_pressure;Samples;Min_cycle;Max_cycle;Signal;HPM_P1;HPM_P2
2023/11/25 00:00:46;;;;;;;;;;;9.90;79.70;;;;;;5003822;28;86957;-44
2023/11/25 00:03:11;;;;;;;;;;;9.90;79.70;;;;;;4998242;28;86961;-44
2023/11/25 00:05:37;;;;;;;;;;;9.90;79.70;;;;;;4994707;28;86759;-45
2023/11/25 00:08:03;;;;;;;;;;;9.90;79.60;;;;;;4997021;28;88498;-45
2023/11/25 00:10:28;;;;;;;;;;;9.90;79.60;;;;;;4998460;28;86662;-46
2023/11/25 00:12:54;;;;;;;;;;;9.90;79.50;;;;;;4995442;28;87846;-44
2023/11/25 00:15:20;;;;;;;;;;;10.00;79.60;;;;;;4997073;28;88294;-46
2023/11/25 00:17:45;;;;;;;;;;;9.90;79.60;;;;;;4995889;28;87046;-45
2023/11/25 00:20:11;;;;;;;;;;;9.90;79.60;;;;;;5000211;28;86953;-45
2023/11/25 00:22:37;;;;;;;;;;;9.90;79.50;;;;;;4996149;28;86978;-44
2023/11/25 00:25:03;;;;;;;;;;;9.90;79.60;;;;;;4996320;28;86838;-45
2023/11/25 00:27:29;;;;;;;;;;;9.90;79.60;;;;;;4992994;28;88457;-45
2023/11/25 00:29:55;;;;;;;;;;;9.90;79.70;;;;;;4996933;28;86258;-44
2023/11/25 00:32:21;;;;;;;;;;;9.90;79.90;;;;;;4997891;28;87285;-45
2023/11/25 00:34:46;;;;;;;;;;;9.90;79.60;;;;;;4994221;28;87394;-45
2023/11/25 00:37:12;;;;;;;;;;;9.90;79.60;;;;;;4998653;28;87847;-45
2023/11/25 00:39:38;;;;;;;;;;;9.90;79.70;;;;;;4997774;28;87917;-44
2023/11/25 00:42:04;;;;;;;;;;;9.90;79.80;;;;;;5000399;28;88532;-45
2023/11/25 00:44:30;;;;;;;;;;;9.90;80.40;;;;;;4994498;28;86758;-45
2023/11/25 00:46:55;;;;;;;;;;;9.90;79.60;;;;;;4995535;28;88746;-45
2023/11/25 00:49:21;;;;;;;;;;;9.90;79.80;;;;;;4995612;28;87082;-45
2023/11/25 00:51:46;;;;;;;;;;;9.90;79.70;;;;;;4993442;28;86914;-45
2023/11/25 00:54:12;;;;;;;;;;;9.90;79.80;;;;;;4998031;28;86761;-45
2023/11/25 00:56:37;;;;;;;;;;;9.90;79.80;;;;;;4999748;28;86996;-44
2023/11/25 00:59:03;;;;;;;;;;;9.90;79.90;;;;;;4995330;28;87942;-44
2023/11/25 01:01:29;;;;;;;;;;;9.90;79.90;;;;;;4996561;28;88400;-45
2023/11/25 01:03:54;;;;;;;;;;;9.90;79.70;;;;;;5035559;28;87061;-44
2023/11/25 01:06:20;;;;;;;;;;;9.90;79.90;;;;;;5001419;28;87381;-43
2023/11/25 01:08:46;;;;;;;;;;;9.90;80.00;;;;;;4996524;28;87355;-45
2023/11/25 01:11:11;;;;;;;;;;;9.90;80.00;;;;;;5000708;28;86973;-43
2023/11/25 01:13:37;;;;;;;;;;;9.90;79.80;;;;;;4996307;28;88577;-44
2023/11/25 01:16:03;;;;;;;;;;;9.90;79.90;;;;;;5000907;28;87061;-44
2023/11/25 01:18:29;;;;;;;;;;;9.90;80.00;;;;;;5000564;28;87468;-44
2023/11/25 01:20:56;;;;;;;;;;;9.90;79.90;;;;;;4994512;28;87548;-44
2023/11/25 01:23:22;;;;;;;;;;;10.00;79.60;;;;;;5002296;28;87088;-44
2023/11/25 01:25:48;;;;;;;;;;;9.90;79.80;;;;;;5001420;28;88055;-43
2023/11/25 01:28:14;;;;;;;;;;;9.90;79.70;;;;;;4999989;28;86908;-43
2023/11/25 01:30:39;;;;;;;;;;;9.90;80.00;;;;;;4996580;28;88263;-44
2023/11/25 01:33:06;;;;;;;;;;;9.90;79.90;;;;;;4996937;28;87839;-45
2023/11/25 01:35:32;;;;;;;;;;;10.00;79.80;;;;;;5000157;28;86977;-44
2023/11/25 01:37:58;;;;;;;;;;;9.90;79.90;;;;;;4998281;28;87967;-44
2023/11/25 01:40:24;;;;;;;;;;;9.90;79.90;;;;;;5001233;28;87547;-43
2023/11/25 01:42:50;;;;;;;;;;;9.90;79.90;;;;;;4999705;28;86889;-43
2023/11/25 01:45:15;;;;;;;;;;;10.00;80.00;;;;;;5000249;28;86963;-43
2023/11/25 01:47:41;;;;;;;;;;;10.00;79.80;;;;;;4999321;28;88468;-43
2023/11/25 01:50:08;;;;;;;;;;;10.00;80.00;;;;;;5000078;28;87934;-42
2023/11/25 01:52:34;;;;;;;;;;;10.00;80.00;;;;;;4996520;28;87392;-43
2023/11/25 01:55:03;;;;;;;;;;;10.00;80.00;;;;;;4999864;28;87086;-43
2023/11/25 01:57:29;;;;;;;;;;;10.00;80.40;;;;;;4998325;28;87970;-43
2023/11/25 01:59:56;;;;;;;;;;;10.00;79.80;;;;;;4996036;28;88641;-42
2023/11/25 02:02:25;;;;;;;;;;;10.00;80.30;;;;;;4996250;28;87009;-42
2023/11/25 02:04:52;;;;;;;;;;;10.00;80.00;;;;;;4999502;28;87973;-44
2023/11/25 02:07:17;;;;;;;;;;;10.00;80.00;;;;;;4995958;28;87876;-43
2023/11/25 02:09:43;;;;;;;;;;;9.90;80.00;;;;;;5006177;28;86989;-42
2023/11/25 02:12:10;;;;;;;;;;;10.00;80.00;;;;;;4997038;28;87563;-43
2023/11/25 02:14:37;;;;;;;;;;;10.00;80.00;;;;;;4999037;28;87964;-43
2023/11/25 02:17:04;;;;;;;;;;;10.00;79.90;;;;;;4999296;28;88875;-43
2023/11/25 02:19:30;;;;;;;;;;;10.00;80.00;;;;;;4996641;28;87468;-45
2023/11/25 02:21:56;;;;;;;;;;;10.00;79.90;;;;;;4998100;28;86936;-43
2023/11/25 02:24:26;;;;;;;;;;;10.00;79.80;;;;;;4999928;28;87018;-43
2023/11/25 02:27:01;;;;;;;;;;;10.00;79.60;;;;;;4996373;28;88446;-44
2023/11/25 02:29:27;;;;;;;;;;;10.00;79.80;;;;;;5001841;28;86989;-43
2023/11/25 02:31:52;;;;;;;;;;;10.00;79.90;;;;;;4999992;28;87684;-43
2023/11/25 02:34:20;;;;;;;;;;;10.00;79.90;;;;;;4998920;28;87056;-43
2023/11/25 02:36:46;;;;;;;;;;;10.00;79.70;;;;;;4995932;28;87858;-42
2023/11/25 02:39:14;;;;;;;;;;;10.00;80.30;;;;;;4997433;28;89354;-43
2023/11/25 02:41:40;;;;;;;;;;;10.00;79.60;;;;;;4999299;28;86885;-43
2023/11/25 02:44:07;;;;;;;;;;;10.00;79.60;;;;;;4998176;28;87036;-43
2023/11/25 02:46:33;;;;;;;;;;;10.00;79.60;;;;;;4998671;28;87885;-43
2023/11/25 02:48:59;;;;;;;;;;;10.00;79.70;;;;;;5002022;28;86975;-43
2023/11/25 02:51:25;;;;;;;;;;;10.00;79.70;;;;;;5000355;28;87995;-43
2023/11/25 02:53:50;;;;;;;;;;;10.00;79.80;;;;;;4997810;28;87009;-42
2023/11/25 02:56:16;;;;;;;;;;;10.00;79.70;;;;;;4995972;28;87975;-43
2023/11/25 02:58:42;;;;;;;;;;;10.00;79.70;;;;;;4995950;28;87519;-43
2023/11/25 03:01:11;;;;;;;;;;;10.10;79.70;;;;;;4998702;28;87061;-43
2023/11/25 03:03:41;;;;;;;;;;;10.00;79.70;;;;;;5001344;28;88077;-43
2023/11/25 03:06:07;;;;;;;;;;;10.00;79.90;;;;;;4997177;28;87303;-43
2023/11/25 03:08:34;;;;;;;;;;;10.00;79.60;;;;;;4998082;28;87072;-46
2023/11/25 03:11:00;;;;;;;;;;;10.00;79.70;;;;;;4995090;28;87812;-42
2023/11/25 03:13:26;;;;;;;;;;;10.00;79.60;;;;;;4998385;28;87489;-42
2023/11/25 03:15:53;;;;;;;;;;;10.00;79.90;;;;;;5002015;28;86900;-43
2023/11/25 03:18:20;;;;;;;;;;;10.00;79.70;;;;;;4998239;28;88520;-42
2023/11/25 03:20:45;;;;;;;;;;;10.00;79.60;;;;;;4996712;28;86254;-43
2023/11/25 03:23:11;;;;;;;;;;;10.00;79.60;;;;;;4997489;28;86798;-43
2023/11/25 03:25:38;;;;;;;;;;;10.00;79.60;;;;;;4998308;28;87482;-44
2023/11/25 03:28:10;;;;;;;;;;;10.00;79.60;;;;;;4994508;28;88050;-43
2023/11/25 03:30:35;;;;;;;;;;;10.00;79.70;;;;;;4994986;28;89118;-44
2023/11/25 03:33:01;;;;;;;;;;;10.00;79.50;;;;;;5000243;28;88579;-43
2023/11/25 03:35:26;;;;;;;;;;;10.00;79.70;;;;;;4999633;28;87051;-43
2023/11/25 03:37:53;;;;;;;;;;;10.00;79.60;;;;;;5004203;28;88433;-43
2023/11/25 03:40:19;;;;;;;;;;;10.00;79.50;;;;;;4998292;28;86958;-42
2023/11/25 03:42:45;;;;;;;;;;;10.00;79.40;;;;;;4996085;28;87946;-43
2023/11/25 03:45:13;;;;;;;;;;;10.00;79.50;;;;;;4997320;28;86750;-43
2023/11/25 03:47:42;;;;;;;;;;;10.00;80.20;;;;;;4996156;28;88400;-43
2023/11/25 03:50:08;;;;;;;;;;;10.10;79.60;;;;;;4997202;28;87013;-43
2023/11/25 03:52:34;;;;;;;;;;;10.00;79.50;;;;;;4996918;28;88244;-43
2023/11/25 03:55:02;;;;;;;;;;;10.00;79.50;;;;;;4996702;28;86932;-43
2023/11/25 03:57:27;;;;;;;;;;;10.00;79.40;;;;;;4998558;28;87407;-44
2023/11/25 03:59:53;;;;;;;;;;;10.00;79.40;;;;;;4998014;28;86981;-43
2023/11/25 04:02:19;;;;;;;;;;;10.00;79.50;;;;;;4995661;28;87801;-43
2023/11/25 04:04:45;;;;;;;;;;;10.10;79.50;;;;;;4994027;28;87129;-43
2023/11/25 04:07:11;;;;;;;;;;;10.00;79.40;;;;;;4996114;28;87490;-44
2023/11/25 04:09:37;;;;;;;;;;;10.00;79.30;;;;;;4998194;28;86752;-43
2023/11/25 04:12:03;;;;;;;;;;;10.00;79.50;;;;;;4994441;28;87365;-43
2023/11/25 04:14:29;;;;;;;;;;;10.00;79.40;;;;;;4998148;28;86932;-42
2023/11/25 04:16:56;;;;;;;;;;;10.00;79.40;;;;;;4997509;28;88070;-43
2023/11/25 04:19:21;;;;;;;;;;;10.10;79.60;;;;;;4996846;28;88611;-42
2023/11/25 04:21:50;;;;;;;;;;;10.00;79.30;;;;;;4997468;28;86845;-42
2023/11/25 04:24:17;;;;;;;;;;;10.00;79.20;;;;;;4993576;28;88487;-43
2023/11/25 04:26:42;;;;;;;;;;;10.00;79.40;;;;;;4994564;28;87162;-43
2023/11/25 04:29:11;;;;;;;;;;;10.00;79.30;;;;;;5000996;28;86987;-43
2023/11/25 04:31:37;;;;;;;;;;;10.00;79.20;;;;;;4996951;28;87595;-43
2023/11/25 04:34:04;;;;;;;;;;;10.00;79.20;;;;;;5000094;28;86127;-43
2023/11/25 04:36:31;;;;;;;;;;;10.00;79.50;;;;;;4999982;28;87332;-43
2023/11/25 04:38:59;;;;;;;;;;;10.00;79.30;;;;;;5000601;28;88542;-44
2023/11/25 04:41:25;;;;;;;;;;;10.00;78.90;;;;;;4999341;28;88023;-44
2023/11/25 04:43:50;;;;;;;;;;;10.00;79.00;;;;;;4998629;28;87434;-43
2023/11/25 04:46:16;;;;;;;;;;;10.00;79.00;;;;;;4999707;28;86921;-45
2023/11/25 04:48:41;;;;;;;;;;;10.00;78.80;;;;;;4999305;28;87924;-43
2023/11/25 04:51:07;;;;;;;;;;;10.00;78.80;;;;;;4998495;28;87536;-43
2023/11/25 04:53:32;;;;;;;;;;;10.00;78.80;;;;;;5002065;28;87082;-43
2023/11/25 04:55:58;;;;;;;;;;;10.00;78.80;;;;;;4997104;28;87045;-42
2023/11/25 04:58:24;;;;;;;;;;;10.00;78.90;;;;;;4996557;28;86552;-42
2023/11/25 05:00:49;;;;;;;;;;;10.00;79.00;;;;;;5003901;28;87155;-42
2023/11/25 05:03:15;;;;;;;;;;;10.00;78.90;;;;;;5000514;28;88839;-43
2023/11/25 05:05:40;;;;;;;;;;;10.00;78.80;;;;;;4996928;28;87919;-42
2023/11/25 05:08:06;;;;;;;;;;;10.00;78.40;;;;;;5000471;28;88780;-42
2023/11/25 05:10:32;;;;;;;;;;;10.00;78.20;;;;;;5002791;28;88572;-43
2023/11/25 05:12:58;;;;;;;;;;;10.00;78.30;;;;;;4996810;28;86988;-43
2023/11/25 05:15:25;;;;;;;;;;;10.00;78.10;;;;;;5000217;28;87115;-42
2023/11/25 05:17:51;;;;;;;;;;;10.00;78.00;;;;;;5005330;28;88512;-42
2023/11/25 05:20:16;;;;;;;;;;;9.90;78.00;;;;;;4996797;28;86975;-43
2023/11/25 05:22:42;;;;;;;;;;;9.90;78.10;;;;;;5002732;28;87790;-43
2023/11/25 05:25:11;;;;;;;;;;;10.00;77.80;;;;;;4996702;28;86968;-42
2023/11/25 05:27:36;;;;;;;;;;;9.90;77.80;;;;;;5000275;28;88623;-42
2023/11/25 05:30:02;;;;;;;;;;;10.00;77.90;;;;;;4998510;28;89455;-42
2023/11/25 05:32:28;;;;;;;;;;;9.90;78.00;;;;;;4993762;28;87357;-41
2023/11/25 05:34:54;;;;;;;;;;;9.90;77.90;;;;;;5000962;28;86889;-41
2023/11/25 05:37:19;;;;;;;;;;;9.90;78.10;;;;;;4999909;28;87414;-41
2023/11/25 05:39:45;;;;;;;;;;;9.90;77.90;;;;;;4998372;28;87109;-41
2023/11/25 05:42:12;;;;;;;;;;;9.90;77.90;;;;;;5000378;28;87696;-41
2023/11/25 05:44:38;;;;;;;;;;;9.90;78.00;;;;;;4999096;28;88529;-41
2023/11/25 05:47:04;;;;;;;;;;;9.90;77.80;;;;;;5000108;28;87783;-40
2023/11/25 05:49:29;;;;;;;;;;;9.90;77.90;;;;;;4997378;28;86912;-40
2023/11/25 05:51:55;;;;;;;;;;;9.90;77.80;;;;;;5000504;28;87250;-41
2023/11/25 05:54:20;;;;;;;;;;;9.90;77.80;;;;;;4994659;28;87930;-40
2023/11/25 05:56:50;;;;;;;;;;;9.90;77.80;;;;;;4999876;28;87323;-40
2023/11/25 05:59:18;;;;;;;;;;;9.80;77.70;;;;;;4997489;28;88605;-40
2023/11/25 06:01:44;;;;;;;;;;;9.80;77.80;;;;;;5003601;28;87733;-41
2023/11/25 06:04:10;;;;;;;;;;;9.80;77.70;;;;;;5001758;28;87695;-40
2023/11/25 06:06:35;;;;;;;;;;;9.80;77.60;;;;;;4998066;28;86963;-40
2023/11/25 06:09:01;;;;;;;;;;;9.80;77.60;;;;;;4997252;28;87626;-40
2023/11/25 06:11:28;;;;;;;;;;;9.80;77.60;;;;;;4996648;28;86290;-40
2023/11/25 06:13:56;;;;;;;;;;;9.80;77.50;;;;;;4999063;28;87115;-41
2023/11/25 06:16:24;;;;;;;;;;;9.80;77.50;;;;;;4994400;28;87516;-41
2023/11/25 06:18:50;;;;;;;;;;;9.80;77.60;;;;;;4997934;28;88207;-40
2023/11/25 06:21:16;;;;;;;;;;;9.70;77.50;;;;;;4999326;28;89055;-40
2023/11/25 06:23:44;;;;;;;;;;;9.70;77.60;;;;;;4997818;28;87499;-40
2023/11/25 06:26:10;;;;;;;;;;;9.70;77.50;;;;;;4993698;28;86889;-40
2023/11/25 06:28:40;;;;;;;;;;;9.60;77.70;;;;;;5000770;28;87754;-40
2023/11/25 06:31:05;;;;;;;;;;;9.70;77.60;;;;;;4994359;28;86974;-40
2023/11/25 06:33:31;;;;;;;;;;;9.70;77.40;;;;;;4994928;28;87841;-40
2023/11/25 06:35:57;;;;;;;;;;;9.70;77.50;;;;;;4999806;28;86686;-40
2023/11/25 06:38:23;;;;;;;;;;;9.70;77.40;;;;;;5000230;28;87028;-40
2023/11/25 06:40:49;;;;;;;;;;;9.70;77.40;;;;;;4993120;28;87613;-40
2023/11/25 06:43:15;;;;;;;;;;;9.60;77.30;;;;;;4993807;28;88416;-40
2023/11/25 06:45:41;;;;;;;;;;;9.70;77.10;;;;;;4996266;28;87044;-40
2023/11/25 06:48:07;;;;;;;;;;;9.60;77.10;;;;;;5002497;28;88199;-41
2023/11/25 06:50:33;;;;;;;;;;;9.60;77.00;;;;;;4999302;28;87095;-41
2023/11/25 06:52:59;;;;;;;;;;;9.60;77.10;;;;;;4996590;28;87832;-40
2023/11/25 06:55:24;;;;;;;;;;;9.60;77.10;;;;;;4998694;28;87503;-41
2023/11/25 06:57:50;;;;;;;;;;;9.60;77.10;;;;;;4998762;28;87006;-40
2023/11/25 07:00:16;;;;;;;;;;;9.60;77.00;;;;;;4997936;28;86851;-40
2023/11/25 07:02:42;;;;;;;;;;;9.60;77.00;;;;;;4993479;28;87613;-41
2023/11/25 07:05:08;;;;;;;;;;;9.60;76.90;;;;;;5003537;28;87044;-41
2023/11/25 07:07:34;;;;;;;;;;;9.60;77.00;;;;;;4993438;28;88371;-40
2023/11/25 07:10:00;;;;;;;;;;;9.60;77.00;;;;;;5001726;28;89517;-40
2023/11/25 07:12:25;;;;;;;;;;;9.60;77.00;;;;;;4999704;28;87207;-40
2023/11/25 07:14:51;;;;;;;;;;;9.50;76.90;;;;;;4998893;28;87449;-41
2023/11/25 07:17:16;;;;;;;;;;;9.60;76.90;;;;;;5001716;28;87120;-40
2023/11/25 07:19:42;;;;;;;;;;;9.50;76.80;;;;;;4993665;28;87057;-40
2023/11/25 07:22:13;;;;;;;;;;;9.50;76.90;;;;;;4997347;28;88590;-42
2023/11/25 07:24:39;;;;;;;;;;;9.50;76.80;;;;;;4999778;28;86239;-40
2023/11/25 07:27:06;;;;;;;;;;;9.50;76.80;;;;;;4995409;28;87399;-41
2023/11/25 07:29:32;;;;;;;;;;;9.60;76.80;;;;;;4999515;28;88554;-40
2023/11/25 07:32:00;;;;;;;;;;;9.50;76.80;;;;;;5003712;28;88048;-41
2023/11/25 07:34:28;;;;;;;;;;;9.50;76.90;;;;;;5004348;28;88475;-40
2023/11/25 07:36:54;;;;;;;;;;;9.50;76.90;;;;;;4994022;28;87249;-41
2023/11/25 07:39:22;;;;;;;;;;;9.50;76.80;;;;;;4997617;28;87969;-40
2023/11/25 07:41:53;;;;;;;;;;;9.40;76.80;;;;;;5001583;28;87501;-41
2023/11/25 07:44:22;;;;;;;;;;;9.50;76.80;;;;;;4999872;28;87098;-40
2023/11/25 07:46:49;;;;;;;;;;;9.40;76.70;;;;;;4998924;28;87035;-41
2023/11/25 07:49:15;;;;;;;;;;;9.50;76.70;;;;;;4994058;28;86673;-40
2023/11/25 07:51:40;;;;;;;;;;;9.40;76.60;;;;;;4998689;28;87353;-40
2023/11/25 07:54:08;;;;;;;;;;;9.40;76.60;;;;;;4998600;28;86980;-42
2023/11/25 07:56:34;;;;;;;;;;;9.40;76.60;;;;;;4993752;28;87957;-40
2023/11/25 07:59:00;;;;;;;;;;;9.40;76.60;;;;;;4995433;28;88871;-40
2023/11/25 08:01:26;;;;;;;;;;;9.40;76.70;;;;;;4999118;28;87512;-40
2023/11/25 08:03:52;;;;;;;;;;;9.40;76.50;;;;;;4998549;28;87075;-41
2023/11/25 08:06:18;;;;;;;;;;;9.40;76.60;;;;;;4994015;28;87977;-40
2023/11/25 08:08:45;;;;;;;;;;;9.40;76.60;;;;;;4994390;28;87347;-41
2023/11/25 08:11:11;;;;;;;;;;;9.40;76.50;;;;;;4998096;28;87221;-40
2023/11/25 08:13:37;;;;;;;;;;;9.30;76.50;;;;;;5003702;28;86670;-41
2023/11/25 08:16:04;;;;;;;;;;;9.30;76.50;;;;;;4997194;28;87427;-41
2023/11/25 08:18:30;;;;;;;;;;;9.30;76.50;;;;;;4997090;28;87804;-41
2023/11/25 08:20:56;;;;;;;;;;;9.30;76.50;;;;;;5000452;28;88393;-41
2023/11/25 08:23:22;;;;;;;;;;;9.30;76.30;;;;;;5002348;28;87030;-40
2023/11/25 08:25:47;;;;;;;;;;;9.30;76.40;;;;;;4996506;28;86972;-41
2023/11/25 08:28:13;;;;;;;;;;;9.30;76.30;;;;;;4994903;28;87005;-40
2023/11/25 08:30:39;;;;;;;;;;;9.30;76.30;;;;;;5002062;28;87440;-40
2023/11/25 08:33:04;;;;;;;;;;;9.30;76.20;;;;;;5003031;28;89582;-40
2023/11/25 08:35:30;;;;;;;;;;;9.30;76.20;;;;;;4997499;28;87453;-40
2023/11/25 08:37:57;;;;;;;;;;;9.20;76.20;;;;;;5007520;28;86193;-40
2023/11/25 08:40:22;;;;;;;;;;;9.20;76.20;;;;;;4995225;28;88468;-41
2023/11/25 08:42:49;;;;;;;;;;;9.20;76.20;;;;;;4990520;28;86968;-41
2023/11/25 08:45:15;;;;;;;;;;;9.20;76.80;;;;;;4998454;28;87970;-40
2023/11/25 08:47:41;;;;;;;;;;;9.20;76.10;;;;;;5003550;28;89983;-41
2023/11/25 08:50:09;;;;;;;;;;;9.20;76.10;;;;;;4998640;28;87061;-40
2023/11/25 08:52:38;;;;;;;;;;;9.20;76.10;;;;;;4996130;28;87845;-40
2023/11/25 08:55:10;;;;;;;;;;;9.20;76.20;;;;;;5000399;28;87464;-41
2023/11/25 08:57:36;;;;;;;;;;;9.20;76.10;;;;;;5004452;28;87004;-41
2023/11/25 09:00:06;;;;;;;;;;;9.20;76.00;;;;;;4997538;28;87451;-40
2023/11/25 09:02:32;;;;;;;;;;;9.20;76.00;;;;;;4996657;28;86314;-42
2023/11/25 09:04:58;;;;;;;;;;;9.20;75.90;;;;;;5005274;28;86852;-40
2023/11/25 09:07:23;;;;;;;;;;;9.20;76.00;;;;;;4997530;28;87188;-40
2023/11/25 09:09:49;;;;;;;;;;;9.10;76.00;;;;;;4996557;28;87915;-41
2023/11/25 09:12:16;;;;;;;;;;;9.10;75.90;;;;;;4997015;28;88609;-40
2023/11/25 09:14:43;;;;;;;;;;;9.10;76.00;;;;;;5003172;28;88731;-41
2023/11/25 09:17:11;;;;;;;;;;;9.10;75.90;;;;;;4998678;28;86978;-40
2023/11/25 09:19:37;;;;;;;;;;;9.10;75.80;;;;;;4999439;28;87025;-41
2023/11/25 09:22:03;;;;;;;;;;;9.10;75.80;;;;;;4998491;28;86965;-41
2023/11/25 09:24:29;;;;;;;;;;;9.10;75.70;;;;;;5007367;28;86997;-40
2023/11/25 09:26:54;;;;;;;;;;;9.10;75.70;;;;;;4995717;28;87633;-40
2023/11/25 09:29:20;;;;;;;;;;;9.10;75.70;;;;;;5001792;28;86980;-41
2023/11/25 09:31:46;;;;;;;;;;;9.10;75.70;;;;;;4999807;28;86959;-41
2023/11/25 09:34:12;;;;;;;;;;;9.10;75.60;;;;;;5001349;28;89420;-41
2023/11/25 09:36:37;;;;;;;;;;;9.10;75.70;;;;;;5000218;28;87442;-41
2023/11/25 09:39:03;;;;;;;;;;;9.10;75.60;;;;;;4995050;28;88019;-40
2023/11/25 09:41:30;;;;;;;;;;;9.10;75.60;;;;;;5001209;28;88499;-41
2023/11/25 09:43:57;;;;;;;;;;;9.10;75.60;;;;;;4997126;28;87911;-42
2023/11/25 09:46:22;;;;;;;;;;;9.00;75.60;;;;;;4994506;28;88550;-41
2023/11/25 09:48:48;;;;;;;;;;;9.00;75.70;;;;;;4999381;28;88864;-40
2023/11/25 09:51:16;;;;;;;;;;;9.00;75.70;;;;;;4997296;28;87936;-40
2023/11/25 09:53:42;;;;;;;;;;;9.00;75.80;;;;;;5002864;28;88458;-40
2023/11/25 09:56:10;;;;;;;;;;;9.00;75.70;;;;;;4992057;28;87440;-41
2023/11/25 09:58:36;;;;;;;;;;;9.00;75.70;;;;;;4994748;28;89297;-41
2023/11/25 10:01:05;;;;;;;;;;;9.00;75.70;;;;;;4999363;28;87415;-40
2023/11/25 10:03:36;;;;;;;;;;;9.00;75.60;;;;;;5001144;28;87006;-41
2023/11/25 10:06:02;;;;;;;;;;;8.90;75.50;;;;;;4999956;28;87596;-41
2023/11/25 10:08:28;;;;;;;;;;;9.00;75.50;;;;;;4997469;28;87072;-40
2023/11/25 10:11:07;;;;;;;;;;;8.90;75.50;;;;;;5001417;28;87861;-42
2023/11/25 10:13:42;;;;;;;;;;;9.00;75.60;;;;;;4995342;28;88543;-40
2023/11/25 10:16:08;;;;;;;;;;;8.90;75.40;;;;;;4998148;28;87709;-41
2023/11/25 10:18:36;;;;;;;;;;;8.90;75.50;;;;;;4998939;28;87033;-40
2023/11/25 10:21:05;;;;;;;;;;;9.00;75.50;;;;;;4998724;28;88490;-40
2023/11/25 10:23:31;;;;;;;;;;;8.90;75.50;;;;;;4996107;28;87988;-40
2023/11/25 10:26:03;;;;;;;;;;;8.90;75.60;;;;;;5001908;28;87683;-40
2023/11/25 10:28:32;;;;;;;;;;;8.90;75.50;;;;;;4998486;28;87167;-41
2023/11/25 10:31:02;;;;;;;;;;;8.90;75.40;;;;;;4998131;28;88390;-40
2023/11/25 10:33:28;;;;;;;;;;;8.90;75.40;;;;;;4997022;28;88569;-40
2023/11/25 10:35:54;;;;;;;;;;;8.90;75.50;;;;;;4999709;28;86939;-42
2023/11/25 10:38:27;;;;;;;;;;;8.80;75.30;;;;;;5000219;28;86942;-41
2023/11/25 10:41:18;;;;;;;;;;;8.80;75.40;;;;;;4996943;28;86931;-42
2023/11/25 10:43:44;;;;;;;;;;;8.80;75.30;;;;;;4992981;28;87056;-40
2023/11/25 10:46:10;;;;;;;;;;;8.90;75.40;;;;;;4998174;28;87983;-41
2023/11/25 10:48:38;;;;;;;;;;;8.80;75.30;;;;;;5000643;28;87941;-43
2023/11/25 10:51:04;;;;;;;;;;;8.80;75.30;;;;;;4995288;28;87917;-41
2023/11/25 10:53:30;;;;;;;;;;;8.80;75.30;;;;;;4996552;28;87631;-41
2023/11/25 10:55:56;;;;;;;;;;;8.80;76.00;;;;;;4999329;28;87063;-40
2023/11/25 10:58:22;;;;;;;;;;;8.80;75.30;;;;;;4998178;28;87058;-41
2023/11/25 11:00:48;;;;;;;;;;;8.80;75.40;;;;;;4998560;28;88604;-40
2023/11/25 11:03:14;;;;;;;;;;;8.70;75.30;;;;;;4994310;28;87346;-41
2023/11/25 11:05:49;;;;;;;;;;;8.70;75.30;;;;;;4999727;28;86710;-41
2023/11/25 11:08:22;;;;;;;;;;;8.70;75.30;;;;;;4999458;28;88426;-41
2023/11/25 11:10:56;;;;;;;;;;;8.70;75.40;;;;;;4995270;28;87575;-40
2023/11/25 11:13:31;;;;;;;;;;;8.70;75.20;;;;;;4995357;28;88429;-41
2023/11/25 11:15:57;;;;;;;;;;;8.70;75.30;;;;;;5001902;28;86862;-40
2023/11/25 11:18:23;;;;;;;;;;;8.70;75.30;;;;;;4998354;28;86903;-41
2023/11/25 11:20:51;;;;;;;;;;;8.70;75.10;;;;;;4994169;28;87453;-42
2023/11/25 11:23:22;;;;;;;;;;;8.70;75.20;;;;;;4998646;28;87098;-41
2023/11/25 11:25:56;;;;;;;;;;;8.60;75.10;;;;;;4998919;28;87810;-40
2023/11/25 11:28:22;;;;;;;;;;;8.60;75.20;;;;;;5000010;28;87685;-40
2023/11/25 11:31:08;;;;;;;;;;;8.70;75.20;;;;;;4996250;28;86446;-41
2023/11/25 11:33:34;;;;;;;;;;;8.60;75.20;;;;;;4998045;28;88443;-41
2023/11/25 11:36:05;;;;;;;;;;;8.60;75.20;;;;;;5001962;28;87008;-40
2023/11/25 11:38:32;;;;;;;;;;;8.60;75.10;;;;;;4999659;28;87962;-41
2023/11/25 11:41:20;;;;;;;;;;;8.60;75.00;;;;;;4994305;28;89043;-42
2023/11/25 11:44:05;;;;;;;;;;;8.60;75.10;;;;;;4999243;28;88827;-41
2023/11/25 11:46:38;;;;;;;;;;;8.60;75.10;;;;;;4995956;28;88158;-41
2023/11/25 11:49:22;;;;;;;;;;;8.50;75.10;;;;;;4992751;28;88291;-41
2023/11/25 11:52:00;;;;;;;;;;;8.50;75.10;;;;;;4994789;28;86887;-41
2023/11/25 11:54:28;;;;;;;;;;;8.50;75.10;;;;;;5000995;28;87809;-40
2023/11/25 11:57:03;;;;;;;;;;;8.50;75.10;;;;;;4995252;28;86319;-41
2023/11/25 11:59:47;;;;;;;;;;;8.50;75.00;;;;;;4998800;28;87238;-40
2023/11/25 12:02:13;;;;;;;;;;;8.50;75.10;;;;;;4997970;28;86861;-41
2023/11/25 12:04:38;;;;;;;;;;;8.50;75.10;;;;;;4996078;28;87944;-41
2023/11/25 12:07:04;;;;;;;;;;;8.50;75.10;;;;;;4994166;28;87649;-41
2023/11/25 12:09:29;;;;;;;;;;;8.40;75.10;;;;;;4988978;28;89966;-40
2023/11/25 12:12:00;;;;;;;;;;;8.40;75.10;;;;;;4997109;28;88584;-40
2023/11/25 12:14:26;;;;;;;;;;;8.40;75.10;;;;;;4993917;28;88741;-40
2023/11/25 12:16:52;;;;;;;;;;;8.40;75.00;;;;;;4997992;28;88521;-41
2023/11/25 12:19:17;;;;;;;;;;;8.40;75.10;;;;;;4999067;28;87116;-40
2023/11/25 12:21:44;;;;;;;;;;;8.40;75.20;;;;;;5002975;28;89364;-40
2023/11/25 12:24:12;;;;;;;;;;;8.40;75.00;;;;;;5000404;28;87056;-41
2023/11/25 12:26:38;;;;;;;;;;;8.40;75.10;;;;;;4996684;28;88528;-42
2023/11/25 12:29:06;;;;;;;;;;;8.40;75.20;;;;;;4994828;28;89687;-40
2023/11/25 12:31:32;;;;;;;;;;;8.30;75.10;;;;;;5001756;28;87094;-41
2023/11/25 12:34:01;;;;;;;;;;;8.30;75.00;;;;;;4996082;28;88048;-40
2023/11/25 12:36:26;;;;;;;;;;;8.30;75.00;;;;;;5000515;28;87656;-40
2023/11/25 12:38:52;;;;;;;;;;;8.30;75.00;;;;;;5000886;28;87421;-41
2023/11/25 12:41:18;;;;;;;;;;;8.30;75.00;;;;;;4994071;28;88905;-40
2023/11/25 12:44:03;;;;;;;;;;;8.30;75.10;;;;;;4993696;28;87152;-41
2023/11/25 12:46:29;;;;;;;;;;;8.30;75.10;;;;;;4998268;28;86889;-40
2023/11/25 12:48:57;;;;;;;;;;;8.30;75.00;;;;;;4993749;28;86887;-41
2023/11/25 12:51:23;;;;;;;;;;;8.20;75.10;;;;;;4993023;28;87177;-41
2023/11/25 12:53:52;;;;;;;;;;;8.20;75.10;;;;;;4996917;28;87933;-41
2023/11/25 12:56:17;;;;;;;;;;;8.20;75.00;;;;;;4994406;28;88563;-41
2023/11/25 12:58:44;;;;;;;;;;;8.20;75.00;;;;;;5002149;28;87062;-41
2023/11/25 13:01:10;;;;;;;;;;;8.20;75.00;;;;;;4997372;28;87545;-41
2023/11/25 13:03:36;;;;;;;;;;;8.20;75.00;;;;;;5005027;28;87075;-41
2023/11/25 13:06:04;;;;;;;;;;;8.20;75.10;;;;;;4997618;28;87986;-41
2023/11/25 13:08:32;;;;;;;;;;;8.20;75.00;;;;;;4997908;28;87565;-41
2023/11/25 13:11:03;;;;;;;;;;;8.20;75.00;;;;;;5001609;28;87018;-41
2023/11/25 13:13:29;;;;;;;;;;;8.20;75.10;;;;;;4994835;28;87120;-41
2023/11/25 13:15:55;;;;;;;;;;;8.20;75.00;;;;;;4998091;28;88478;-40
2023/11/25 13:18:21;;;;;;;;;;;8.10;75.00;;;;;;5002598;28;88047;-42
2023/11/25 13:20:48;;;;;;;;;;;8.10;75.00;;;;;;5004439;28;86997;-41
2023/11/25 13:23:14;;;;;;;;;;;8.10;74.90;;;;;;5005363;28;87012;-40
2023/11/25 13:25:39;;;;;;;;;;;8.10;75.00;;;;;;5000531;28;87885;-41
2023/11/25 13:28:05;;;;;;;;;;;8.10;74.90;;;;;;4996237;28;88504;-42
2023/11/25 13:30:32;;;;;;;;;;;8.10;74.90;;;;;;4996874;28;87129;-41
2023/11/25 13:32:58;;;;;;;;;;;8.10;74.90;;;;;;4997669;28;86984;-41
2023/11/25 13:35:24;;;;;;;;;;;8.00;74.90;;;;;;5000629;28;86769;-41
2023/11/25 13:37:53;;;;;;;;;;;8.00;74.80;;;;;;4996616;28;86831;-42
2023/11/25 13:40:19;;;;;;;;;;;8.00;74.80;;;;;;4998053;28;88045;-41
2023/11/25 13:42:47;;;;;;;;;;;8.00;74.90;;;;;;4998611;28;89767;-41
2023/11/25 13:45:13;;;;;;;;;;;8.00;74.90;;;;;;4996080;28;87672;-41
2023/11/25 13:47:40;;;;;;;;;;;8.00;74.90;;;;;;5001076;28;88516;-41
2023/11/25 13:50:07;;;;;;;;;;;8.00;74.90;;;;;;4996126;28;86963;-41
2023/11/25 13:52:33;;;;;;;;;;;8.00;74.90;;;;;;4996119;28;88186;-42
2023/11/25 13:54:58;;;;;;;;;;;8.00;74.90;;;;;;4999511;28;87614;-41
2023/11/25 13:57:24;;;;;;;;;;;7.90;74.80;;;;;;4996968;28;87037;-42
2023/11/25 13:59:49;;;;;;;;;;;7.90;74.90;;;;;;5000679;28;87086;-42
2023/11/25 14:02:15;;;;;;;;;;;7.90;74.80;;;;;;5000558;28;87389;-42
2023/11/25 14:04:42;;;;;;;;;;;7.90;74.80;;;;;;5007917;28;86988;-41
2023/11/25 14:07:09;;;;;;;;;;;7.90;74.70;;;;;;4997524;28;89548;-41
2023/11/25 14:09:34;;;;;;;;;;;7.90;74.70;;;;;;4997976;28;86863;-41
2023/11/25 14:12:01;;;;;;;;;;;7.90;74.70;;;;;;5001473;28;86984;-41
2023/11/25 14:14:27;;;;;;;;;;;7.90;74.80;;;;;;4995979;28;88696;-41
2023/11/25 14:16:52;;;;;;;;;;;7.90;74.80;;;;;;5000157;28;87019;-42
2023/11/25 14:19:18;;;;;;;;;;;7.80;74.80;;;;;;4996412;28;87779;-41
2023/11/25 14:21:44;;;;;;;;;;;7.80;74.80;;;;;;4999867;28;88488;-41
2023/11/25 14:24:09;;;;;;;;;;;7.80;74.80;;;;;;5002176;28;86387;-41